createdAt,value
2023-01-13T00:00:48.225Z,10.95
2023-01-13T00:05:39.821Z,10.90
2023-01-13T00:10:31.366Z,11.08
2023-01-13T00:15:22.929Z,10.90
2023-01-13T00:20:14.953Z,10.64
2023-01-13T00:25:07.050Z,10.19
2023-01-13T00:29:59.182Z,10.67
2023-01-13T00:34:50.821Z,10.69
2023-01-13T00:39:42.572Z,10.77
2023-01-13T00:44:34.140Z,10.57
2023-01-13T00:49:25.732Z,10.32
2023-01-13T00:54:17.319Z,9.99
2023-01-13T00:59:12.846Z,10.16
2023-01-13T01:04:04.641Z,10.05
2023-01-13T01:08:56.721Z,10.32
2023-01-13T01:13:49.209Z,10.39
2023-01-13T01:18:42.940Z,10.58
2023-01-13T01:23:36.511Z,10.62
2023-01-13T01:28:28.307Z,10.55
2023-01-13T01:33:19.848Z,10.61
2023-01-13T01:38:11.866Z,10.65
2023-01-13T01:43:32.766Z,10.15
2023-01-13T01:48:25.076Z,10.35
2023-01-13T01:53:19.593Z,9.74
2023-01-13T01:58:21.847Z,9.42
2023-01-13T02:03:15.158Z,9.10
2023-01-13T02:08:08.406Z,9.35
2023-01-13T02:13:04.759Z,9.41
2023-01-13T02:18:11.267Z,9.41
2023-01-13T02:23:05.562Z,9.39
2023-01-13T02:28:12.225Z,8.97
2023-01-13T02:33:39.192Z,9.19
2023-01-13T02:38:39.501Z,9.25
2023-01-13T02:43:57.372Z,8.88
2023-01-13T02:48:52.778Z,9.27
2023-01-13T02:53:58.407Z,9.33
2023-01-13T02:58:50.940Z,8.94
2023-01-13T03:03:43.906Z,9.12
2023-01-13T03:08:48.715Z,8.23
2023-01-13T03:14:16.949Z,9.08
2023-01-13T03:19:21.631Z,9.13
2023-01-13T03:24:20.023Z,8.53
2023-01-13T03:29:17.329Z,9.03
2023-01-13T03:34:15.851Z,8.05
2023-01-13T03:39:16.368Z,8.66
2023-01-13T03:44:23.759Z,8.75
2023-01-13T03:49:20.507Z,8.74
2023-01-13T03:54:13.962Z,8.77
2023-01-13T03:59:11.686Z,8.85
2023-01-13T04:04:08.224Z,8.86
2023-01-13T04:09:11.857Z,8.86
2023-01-13T04:14:06.277Z,8.48
2023-01-13T04:18:57.860Z,7.97
2023-01-13T04:23:51.423Z,8.18
2023-01-13T04:28:43.076Z,7.58
2023-01-13T04:33:34.665Z,7.83
2023-01-13T04:38:26.382Z,7.69
2023-01-13T04:43:18.025Z,7.02
2023-01-13T04:48:09.786Z,7.12
2023-01-13T04:53:01.596Z,6.97
2023-01-13T04:57:53.329Z,7.27
2023-01-13T05:02:44.898Z,7.88
2023-01-13T05:07:36.869Z,7.85
2023-01-13T05:12:47.181Z,7.39
2023-01-13T05:17:39.640Z,7.95
2023-01-13T05:22:49.657Z,7.32
2023-01-13T05:27:41.349Z,7.52
2023-01-13T05:32:33.203Z,7.54
2023-01-13T05:37:25.873Z,7.61
2023-01-13T05:42:36.088Z,7.71
2023-01-13T05:47:28.500Z,7.58
2023-01-13T05:52:20.107Z,8.04
2023-01-13T05:57:11.691Z,8.19
2023-01-13T06:02:03.218Z,8.18
2023-01-13T06:06:55.930Z,7.83
2023-01-13T06:11:47.590Z,7.98
2023-01-13T06:16:39.335Z,8.12
2023-01-13T06:21:33.005Z,8.21
2023-01-13T06:26:25.161Z,8.34
2023-01-13T06:31:16.911Z,8.35
2023-01-13T06:36:22.137Z,8.41
2023-01-13T06:41:14.111Z,8.41
2023-01-13T06:46:05.978Z,8.26
2023-01-13T06:50:57.505Z,8.29
2023-01-13T06:55:49.160Z,7.83
2023-01-13T07:00:41.128Z,7.96
2023-01-13T07:05:32.747Z,8.10
2023-01-13T07:10:24.324Z,8.09
2023-01-13T07:15:18.695Z,8.36
2023-01-13T07:20:10.802Z,8.14
2023-01-13T07:25:02.361Z,8.02
2023-01-13T07:29:53.978Z,7.75
2023-01-13T07:34:45.529Z,7.68
2023-01-13T07:39:37.147Z,6.44
2023-01-13T07:44:28.729Z,7.67
2023-01-13T07:49:20.292Z,7.55
2023-01-13T07:54:11.943Z,7.48
2023-01-13T07:59:03.838Z,7.25
2023-01-13T08:03:56.326Z,7.34
2023-01-13T08:08:47.938Z,7.24
2023-01-13T08:13:39.678Z,8.13
2023-01-13T08:18:32.338Z,8.77
2023-01-13T08:23:23.944Z,8.69
2023-01-13T08:28:16.516Z,9.39
2023-01-13T08:33:09.881Z,9.80
2023-01-13T08:38:01.440Z,9.92
2023-01-13T08:42:55.518Z,10.34
2023-01-13T08:47:47.126Z,10.31
2023-01-13T08:52:38.735Z,9.46
2023-01-13T08:57:30.393Z,9.11
2023-01-13T09:02:23.568Z,9.09
2023-01-13T09:07:15.605Z,9.57
2023-01-13T09:12:29.500Z,9.03
2023-01-13T09:17:21.136Z,9.93
2023-01-13T09:22:18.535Z,9.97
2023-01-13T09:27:15.257Z,9.45
2023-01-13T09:32:07.227Z,9.83
2023-01-13T09:36:59.108Z,9.31
2023-01-13T09:42:13.312Z,10.54
2023-01-13T09:47:14.456Z,9.82
2023-01-13T09:52:27.072Z,10.16
2023-01-13T09:57:20.850Z,10.63
2023-01-13T10:02:24.294Z,10.55
2023-01-13T10:07:15.975Z,9.72
2023-01-13T10:12:35.912Z,10.76
2023-01-13T10:17:38.315Z,10.72
2023-01-13T10:22:44.693Z,10.92
2023-01-13T10:27:40.730Z,11.03
2023-01-13T10:32:32.614Z,10.96
2023-01-13T10:37:27.121Z,11.02
2023-01-13T10:42:22.814Z,10.69
2023-01-13T10:47:25.154Z,10.93
2023-01-13T10:52:29.505Z,11.35
2023-01-13T10:57:23.632Z,11.41
2023-01-13T11:02:25.959Z,11.34
2023-01-13T11:07:26.815Z,11.46
2023-01-13T11:12:32.439Z,11.39
2023-01-13T11:18:00.714Z,11.31
2023-01-13T11:22:55.673Z,10.85
2023-01-13T11:28:00.685Z,10.80
2023-01-13T11:33:04.902Z,11.53
2023-01-13T11:38:06.523Z,11.53
2023-01-13T11:43:17.905Z,11.22
2023-01-13T11:48:20.811Z,11.23
2023-01-13T11:54:05.006Z,11.36
2023-01-13T11:59:31.196Z,10.76
2023-01-13T12:04:22.712Z,11.29
2023-01-13T12:09:36.916Z,11.45
2023-01-13T12:14:58.674Z,11.30
2023-01-13T12:32:36.557Z,10.93
2023-01-13T12:37:43.038Z,10.96
2023-01-13T12:43:12.297Z,11.13
2023-01-13T12:48:05.116Z,10.63
2023-01-13T12:52:59.261Z,10.12
2023-01-13T12:58:06.125Z,10.40
2023-01-13T13:03:13.805Z,10.38
2023-01-13T13:08:14.603Z,9.78
2023-01-13T13:13:20.267Z,10.11
2023-01-13T13:18:18.038Z,9.68
2023-01-13T13:23:27.247Z,9.02
2023-01-13T13:28:21.839Z,9.19
2023-01-13T13:33:41.477Z,8.77
2023-01-13T13:39:06.809Z,8.77
2023-01-13T13:44:29.947Z,8.46
2023-01-13T13:49:34.799Z,8.45
2023-01-13T13:54:27.182Z,8.01
2023-01-13T13:59:24.803Z,8.07
2023-01-13T14:04:27.437Z,8.42
2023-01-13T14:09:20.140Z,8.58
2023-01-13T14:14:17.240Z,8.24
2023-01-13T14:19:44.138Z,7.87
2023-01-13T14:24:46.509Z,8.82
2023-01-13T14:29:38.289Z,8.75
2023-01-13T14:34:31.512Z,9.07
2023-01-13T14:39:33.416Z,9.08
2023-01-13T14:44:27.930Z,9.20
2023-01-13T14:49:35.995Z,9.18
2023-01-13T14:55:11.272Z,8.79
2023-01-13T15:00:21.296Z,9.07
2023-01-13T15:05:18.933Z,9.11
2023-01-13T15:10:18.032Z,8.59
2023-01-13T15:15:30.146Z,7.55
2023-01-13T15:20:23.794Z,9.00
2023-01-13T15:25:15.893Z,8.31
2023-01-13T15:30:22.312Z,8.61
2023-01-13T15:35:15.748Z,8.95
2023-01-13T15:40:20.193Z,8.79
2023-01-13T15:45:33.494Z,8.88
2023-01-13T15:50:25.444Z,8.81
2023-01-13T15:55:17.019Z,8.43
2023-01-13T16:00:16.220Z,8.68
2023-01-13T16:05:08.121Z,8.03
2023-01-13T16:10:01.758Z,8.18
2023-01-13T16:14:53.382Z,8.64
2023-01-13T16:19:45.461Z,8.46
2023-01-13T16:24:37.725Z,8.55
2023-01-13T16:29:29.395Z,8.65
2023-01-13T16:34:21.017Z,8.14
2023-01-13T16:39:22.557Z,8.13
2023-01-13T16:44:14.316Z,8.17
2023-01-13T16:49:06.611Z,8.05
2023-01-13T16:53:58.236Z,8.51
2023-01-13T16:58:51.343Z,8.59
2023-01-13T17:03:44.373Z,8.42
2023-01-13T17:08:36.043Z,8.56
2023-01-13T17:13:27.767Z,8.21
2023-01-13T17:18:19.372Z,8.11
2023-01-13T17:23:11.029Z,8.37
2023-01-13T17:28:02.830Z,8.02
2023-01-13T17:32:54.397Z,8.08
2023-01-13T17:37:46.833Z,8.19
2023-01-13T17:42:38.464Z,8.58
2023-01-13T17:47:30.004Z,8.62
2023-01-13T17:52:21.627Z,8.62
2023-01-13T17:57:13.306Z,8.27
2023-01-13T18:02:05.178Z,8.67
2023-01-13T18:06:57.134Z,8.27
2023-01-13T18:11:49.009Z,8.10
2023-01-13T18:16:40.780Z,8.59
2023-01-13T18:21:51.289Z,8.58
2023-01-13T18:27:01.698Z,8.37
2023-01-13T18:31:53.378Z,8.10
2023-01-13T18:36:45.072Z,8.45
2023-01-13T18:41:55.433Z,7.76
2023-01-13T18:46:47.095Z,8.48
2023-01-13T18:51:39.601Z,8.66
2023-01-13T18:56:31.280Z,8.78
2023-01-13T19:01:26.028Z,8.85
2023-01-13T19:06:17.694Z,8.82
2023-01-13T19:11:09.511Z,8.70
2023-01-13T19:16:06.295Z,8.45
2023-01-13T19:21:03.174Z,8.55
2023-01-13T19:25:54.888Z,8.64
2023-01-13T19:30:46.555Z,8.57
2023-01-13T19:35:38.373Z,8.73
2023-01-13T19:40:30.061Z,8.41
2023-01-13T19:45:27.888Z,8.40
2023-01-13T19:50:19.939Z,8.86
2023-01-13T19:55:12.477Z,8.10
2023-01-13T20:00:05.746Z,8.01
2023-01-13T20:05:07.580Z,8.17
2023-01-13T20:09:59.571Z,7.66
2023-01-13T20:14:51.678Z,7.65
2023-01-13T20:19:43.507Z,7.99
2023-01-13T20:24:35.675Z,7.66
2023-01-13T20:29:28.495Z,7.99
2023-01-13T20:34:21.099Z,8.34
2023-01-13T20:39:18.202Z,8.33
2023-01-13T20:44:11.605Z,8.39
2023-01-13T20:49:03.553Z,8.03
2023-01-13T20:53:56.740Z,8.42
2023-01-13T20:58:48.368Z,8.00
2023-01-13T21:03:40.252Z,8.20
2023-01-13T21:08:32.393Z,8.46
2023-01-13T21:13:42.512Z,7.88
2023-01-13T21:18:53.091Z,7.69
2023-01-13T21:23:47.516Z,7.79
2023-01-13T21:28:39.218Z,7.96
2023-01-13T21:33:31.032Z,8.00
2023-01-13T21:38:23.078Z,8.53
2023-01-13T21:43:33.288Z,8.55
2023-01-13T21:48:24.940Z,8.13
2023-01-13T21:53:16.589Z,8.27
2023-01-13T21:58:11.549Z,8.02
2023-01-13T22:03:04.908Z,8.48
2023-01-13T22:07:56.631Z,8.07
2023-01-13T22:12:49.006Z,8.17
2023-01-13T22:17:42.212Z,8.65
2023-01-13T22:22:36.647Z,8.63
2023-01-13T22:27:30.574Z,8.60
2023-01-13T22:32:22.544Z,8.59
2023-01-13T22:37:14.158Z,8.55
2023-01-13T22:42:06.516Z,8.52
2023-01-13T22:46:58.097Z,8.38
2023-01-13T22:51:49.698Z,8.40
2023-01-13T22:56:41.360Z,7.99
2023-01-13T23:01:36.191Z,8.17
2023-01-13T23:06:29.768Z,8.50
2023-01-13T23:11:24.569Z,8.36
2023-01-13T23:16:23.725Z,7.69
